sensor_id;sensor_type;location;lat;lon;timestamp;P1;durP1;ratioP1;P2;durP2;ratioP2
14306;SDS011;7237;49.500;11.400;2023-11-18T00:00:40;7.57;;;4.47;;
14306;SDS011;7237;49.500;11.400;2023-11-18T00:03:07;7.17;;;4.63;;
14306;SDS011;7237;49.500;11.400;2023-11-18T00:05:36;5.37;;;4.70;;
14306;SDS011;7237;49.500;11.400;2023-11-18T00:08:03;8.00;;;4.77;;
14306;SDS011;7237;49.500;11.400;2023-11-18T00:10:31;5.50;;;4.30;;
14306;SDS011;7237;49.500;11.400;2023-11-18T00:12:58;5.83;;;4.97;;
14306;SDS011;7237;49.500;11.400;2023-11-18T00:15:26;5.17;;;4.67;;
14306;SDS011;7237;49.500;11.400;2023-11-18T00:17:54;7.47;;;5.07;;
14306;SDS011;7237;49.500;11.400;2023-11-18T00:20:21;8.90;;;4.93;;
14306;SDS011;7237;49.500;11.400;2023-11-18T00:22:50;5.43;;;4.90;;
14306;SDS011;7237;49.500;11.400;2023-11-18T00:25:18;5.17;;;4.40;;
14306;SDS011;7237;49.500;11.400;2023-11-18T00:27:45;8.87;;;4.80;;
14306;SDS011;7237;49.500;11.400;2023-11-18T00:30:12;7.47;;;4.83;;
14306;SDS011;7237;49.500;11.400;2023-11-18T00:32:39;6.87;;;5.30;;
14306;SDS011;7237;49.500;11.400;2023-11-18T00:35:07;5.50;;;4.97;;
14306;SDS011;7237;49.500;11.400;2023-11-18T00:37:35;4.60;;;4.10;;
14306;SDS011;7237;49.500;11.400;2023-11-18T00:40:04;4.93;;;4.40;;
14306;SDS011;7237;49.500;11.400;2023-11-18T00:42:31;9.37;;;4.93;;
14306;SDS011;7237;49.500;11.400;2023-11-18T00:44:58;6.10;;;4.70;;
14306;SDS011;7237;49.500;11.400;2023-11-18T00:47:25;7.10;;;4.50;;
14306;SDS011;7237;49.500;11.400;2023-11-18T00:49:53;5.97;;;4.93;;
14306;SDS011;7237;49.500;11.400;2023-11-18T00:52:20;8.50;;;5.97;;
14306;SDS011;7237;49.500;11.400;2023-11-18T00:54:47;7.30;;;4.80;;
14306;SDS011;7237;49.500;11.400;2023-11-18T00:57:16;5.07;;;4.33;;
14306;SDS011;7237;49.500;11.400;2023-11-18T00:59:43;5.07;;;4.57;;
14306;SDS011;7237;49.500;11.400;2023-11-18T01:02:10;6.20;;;4.47;;
14306;SDS011;7237;49.500;11.400;2023-11-18T01:04:38;5.77;;;4.07;;
14306;SDS011;7237;49.500;11.400;2023-11-18T01:07:05;4.63;;;4.13;;
14306;SDS011;7237;49.500;11.400;2023-11-18T01:09:34;5.00;;;3.73;;
14306;SDS011;7237;49.500;11.400;2023-11-18T01:12:03;7.30;;;4.40;;
14306;SDS011;7237;49.500;11.400;2023-11-18T01:14:35;5.77;;;3.70;;
14306;SDS011;7237;49.500;11.400;2023-11-18T01:17:03;6.63;;;4.77;;
14306;SDS011;7237;49.500;11.400;2023-11-18T01:19:31;4.50;;;3.73;;
14306;SDS011;7237;49.500;11.400;2023-11-18T01:21:58;6.30;;;4.47;;
14306;SDS011;7237;49.500;11.400;2023-11-18T01:24:25;6.10;;;4.93;;
14306;SDS011;7237;49.500;11.400;2023-11-18T01:26:53;8.50;;;5.40;;
14306;SDS011;7237;49.500;11.400;2023-11-18T01:29:20;7.20;;;5.73;;
14306;SDS011;7237;49.500;11.400;2023-11-18T01:31:48;32.63;;;6.00;;
14306;SDS011;7237;49.500;11.400;2023-11-18T01:34:15;14.20;;;5.37;;
14306;SDS011;7237;49.500;11.400;2023-11-18T01:36:46;13.80;;;6.07;;
14306;SDS011;7237;49.500;11.400;2023-11-18T01:39:14;31.57;;;7.10;;
14306;SDS011;7237;49.500;11.400;2023-11-18T01:41:42;14.93;;;5.83;;
14306;SDS011;7237;49.500;11.400;2023-11-18T01:44:10;10.23;;;5.90;;
14306;SDS011;7237;49.500;11.400;2023-11-18T01:46:38;11.83;;;5.37;;
14306;SDS011;7237;49.500;11.400;2023-11-18T01:49:07;8.60;;;4.60;;
14306;SDS011;7237;49.500;11.400;2023-11-18T01:51:35;8.70;;;4.77;;
14306;SDS011;7237;49.500;11.400;2023-11-18T01:54:03;4.87;;;4.27;;
14306;SDS011;7237;49.500;11.400;2023-11-18T01:56:30;9.53;;;5.13;;
14306;SDS011;7237;49.500;11.400;2023-11-18T01:58:58;6.63;;;4.03;;
14306;SDS011;7237;49.500;11.400;2023-11-18T02:01:28;5.80;;;4.90;;
14306;SDS011;7237;49.500;11.400;2023-11-18T02:03:56;6.03;;;4.73;;
14306;SDS011;7237;49.500;11.400;2023-11-18T02:06:25;6.23;;;5.13;;
14306;SDS011;7237;49.500;11.400;2023-11-18T02:08:52;12.70;;;5.40;;
14306;SDS011;7237;49.500;11.400;2023-11-18T02:11:20;6.73;;;5.60;;
14306;SDS011;7237;49.500;11.400;2023-11-18T02:13:50;16.20;;;5.53;;
14306;SDS011;7237;49.500;11.400;2023-11-18T02:16:19;8.03;;;5.30;;
14306;SDS011;7237;49.500;11.400;2023-11-18T02:18:47;13.43;;;6.03;;
14306;SDS011;7237;49.500;11.400;2023-11-18T02:21:14;8.80;;;5.50;;
14306;SDS011;7237;49.500;11.400;2023-11-18T02:23:43;13.87;;;5.43;;
14306;SDS011;7237;49.500;11.400;2023-11-18T02:26:11;14.87;;;5.93;;
14306;SDS011;7237;49.500;11.400;2023-11-18T02:28:47;13.23;;;5.93;;
14306;SDS011;7237;49.500;11.400;2023-11-18T02:31:15;13.97;;;6.20;;
14306;SDS011;7237;49.500;11.400;2023-11-18T02:33:44;11.20;;;5.37;;
14306;SDS011;7237;49.500;11.400;2023-11-18T02:36:17;7.60;;;5.03;;
14306;SDS011;7237;49.500;11.400;2023-11-18T02:38:46;7.93;;;4.97;;
14306;SDS011;7237;49.500;11.400;2023-11-18T02:41:17;18.30;;;5.47;;
14306;SDS011;7237;49.500;11.400;2023-11-18T02:43:44;8.50;;;5.37;;
14306;SDS011;7237;49.500;11.400;2023-11-18T02:46:12;10.30;;;5.90;;
14306;SDS011;7237;49.500;11.400;2023-11-18T02:48:39;10.70;;;4.70;;
14306;SDS011;7237;49.500;11.400;2023-11-18T02:51:07;13.10;;;4.97;;
14306;SDS011;7237;49.500;11.400;2023-11-18T02:53:37;14.30;;;4.50;;
14306;SDS011;7237;49.500;11.400;2023-11-18T02:56:06;13.07;;;5.07;;
14306;SDS011;7237;49.500;11.400;2023-11-18T02:58:35;10.07;;;4.50;;
14306;SDS011;7237;49.500;11.400;2023-11-18T03:01:02;10.13;;;5.53;;
14306;SDS011;7237;49.500;11.400;2023-11-18T03:03:30;5.87;;;4.80;;
14306;SDS011;7237;49.500;11.400;2023-11-18T03:05:57;8.30;;;5.10;;
14306;SDS011;7237;49.500;11.400;2023-11-18T03:08:25;7.07;;;4.60;;
14306;SDS011;7237;49.500;11.400;2023-11-18T03:10:54;7.53;;;4.97;;
14306;SDS011;7237;49.500;11.400;2023-11-18T03:13:23;8.00;;;4.37;;
14306;SDS011;7237;49.500;11.400;2023-11-18T03:15:51;6.93;;;4.53;;
14306;SDS011;7237;49.500;11.400;2023-11-18T03:18:18;4.77;;;4.37;;
14306;SDS011;7237;49.500;11.400;2023-11-18T03:20:45;5.50;;;4.70;;
14306;SDS011;7237;49.500;11.400;2023-11-18T03:23:14;6.13;;;4.93;;
14306;SDS011;7237;49.500;11.400;2023-11-18T03:25:41;4.80;;;4.30;;
14306;SDS011;7237;49.500;11.400;2023-11-18T03:28:08;4.73;;;4.33;;
14306;SDS011;7237;49.500;11.400;2023-11-18T03:30:35;4.17;;;3.80;;
14306;SDS011;7237;49.500;11.400;2023-11-18T03:33:04;4.37;;;3.97;;
14306;SDS011;7237;49.500;11.400;2023-11-18T03:35:35;4.40;;;3.90;;
14306;SDS011;7237;49.500;11.400;2023-11-18T03:38:03;4.70;;;4.20;;
14306;SDS011;7237;49.500;11.400;2023-11-18T03:40:30;5.10;;;4.60;;
14306;SDS011;7237;49.500;11.400;2023-11-18T03:43:00;4.63;;;4.03;;
14306;SDS011;7237;49.500;11.400;2023-11-18T03:45:28;4.53;;;4.10;;
14306;SDS011;7237;49.500;11.400;2023-11-18T03:47:55;4.83;;;4.43;;
14306;SDS011;7237;49.500;11.400;2023-11-18T03:50:24;4.87;;;4.13;;
14306;SDS011;7237;49.500;11.400;2023-11-18T03:52:51;5.27;;;4.47;;
14306;SDS011;7237;49.500;11.400;2023-11-18T03:55:18;4.33;;;3.93;;
14306;SDS011;7237;49.500;11.400;2023-11-18T03:57:46;4.60;;;3.90;;
14306;SDS011;7237;49.500;11.400;2023-11-18T04:00:15;4.23;;;3.83;;
14306;SDS011;7237;49.500;11.400;2023-11-18T04:02:42;4.00;;;3.70;;
14306;SDS011;7237;49.500;11.400;2023-11-18T04:05:11;3.90;;;3.50;;
14306;SDS011;7237;49.500;11.400;2023-11-18T04:07:39;3.80;;;3.50;;
14306;SDS011;7237;49.500;11.400;2023-11-18T04:10:07;3.50;;;3.20;;
14306;SDS011;7237;49.500;11.400;2023-11-18T04:12:35;6.17;;;3.67;;
14306;SDS011;7237;49.500;11.400;2023-11-18T04:15:02;5.80;;;3.40;;
14306;SDS011;7237;49.500;11.400;2023-11-18T04:17:31;3.53;;;3.23;;
14306;SDS011;7237;49.500;11.400;2023-11-18T04:19:58;4.07;;;3.60;;
14306;SDS011;7237;49.500;11.400;2023-11-18T04:22:25;4.10;;;3.30;;
14306;SDS011;7237;49.500;11.400;2023-11-18T04:24:53;4.03;;;3.60;;
14306;SDS011;7237;49.500;11.400;2023-11-18T04:27:20;4.77;;;3.73;;
14306;SDS011;7237;49.500;11.400;2023-11-18T04:29:48;4.03;;;3.73;;
14306;SDS011;7237;49.500;11.400;2023-11-18T04:32:16;4.30;;;3.90;;
14306;SDS011;7237;49.500;11.400;2023-11-18T04:34:43;4.10;;;3.60;;
14306;SDS011;7237;49.500;11.400;2023-11-18T04:37:10;5.07;;;3.60;;
14306;SDS011;7237;49.500;11.400;2023-11-18T04:39:37;5.03;;;3.67;;
14306;SDS011;7237;49.500;11.400;2023-11-18T04:42:05;5.57;;;3.83;;
14306;SDS011;7237;49.500;11.400;2023-11-18T04:44:32;4.93;;;3.90;;
14306;SDS011;7237;49.500;11.400;2023-11-18T04:46:59;4.13;;;3.60;;
14306;SDS011;7237;49.500;11.400;2023-11-18T04:49:27;4.03;;;3.60;;
14306;SDS011;7237;49.500;11.400;2023-11-18T04:51:54;3.70;;;3.40;;
14306;SDS011;7237;49.500;11.400;2023-11-18T04:54:21;4.10;;;3.70;;
14306;SDS011;7237;49.500;11.400;2023-11-18T04:56:49;3.90;;;3.60;;
14306;SDS011;7237;49.500;11.400;2023-11-18T04:59:17;5.07;;;4.10;;
14306;SDS011;7237;49.500;11.400;2023-11-18T05:01:46;7.10;;;3.60;;
14306;SDS011;7237;49.500;11.400;2023-11-18T05:04:13;3.73;;;3.40;;
14306;SDS011;7237;49.500;11.400;2023-11-18T05:06:41;4.50;;;3.53;;
14306;SDS011;7237;49.500;11.400;2023-11-18T05:09:08;3.60;;;3.30;;
14306;SDS011;7237;49.500;11.400;2023-11-18T05:11:35;4.03;;;3.63;;
14306;SDS011;7237;49.500;11.400;2023-11-18T05:14:02;4.03;;;3.70;;
14306;SDS011;7237;49.500;11.400;2023-11-18T05:16:31;4.13;;;3.80;;
14306;SDS011;7237;49.500;11.400;2023-11-18T05:18:58;4.17;;;3.37;;
14306;SDS011;7237;49.500;11.400;2023-11-18T05:21:25;3.60;;;3.30;;
14306;SDS011;7237;49.500;11.400;2023-11-18T05:23:52;4.10;;;3.70;;
14306;SDS011;7237;49.500;11.400;2023-11-18T05:26:19;3.60;;;3.20;;
14306;SDS011;7237;49.500;11.400;2023-11-18T05:28:46;3.43;;;3.13;;
14306;SDS011;7237;49.500;11.400;2023-11-18T05:31:14;3.87;;;3.47;;
14306;SDS011;7237;49.500;11.400;2023-11-18T05:33:43;3.63;;;3.33;;
14306;SDS011;7237;49.500;11.400;2023-11-18T05:36:10;3.37;;;3.07;;
14306;SDS011;7237;49.500;11.400;2023-11-18T05:38:37;5.10;;;3.20;;
14306;SDS011;7237;49.500;11.400;2023-11-18T05:41:04;3.70;;;2.80;;
14306;SDS011;7237;49.500;11.400;2023-11-18T05:43:41;4.13;;;3.10;;
14306;SDS011;7237;49.500;11.400;2023-11-18T05:46:16;3.30;;;3.00;;
14306;SDS011;7237;49.500;11.400;2023-11-18T05:48:47;4.40;;;2.97;;
14306;SDS011;7237;49.500;11.400;2023-11-18T05:51:18;3.70;;;3.10;;
14306;SDS011;7237;49.500;11.400;2023-11-18T05:53:46;4.10;;;3.00;;
14306;SDS011;7237;49.500;11.400;2023-11-18T05:56:13;3.30;;;3.00;;
14306;SDS011;7237;49.500;11.400;2023-11-18T05:58:41;2.93;;;2.70;;
14306;SDS011;7237;49.500;11.400;2023-11-18T06:01:09;3.70;;;3.20;;
14306;SDS011;7237;49.500;11.400;2023-11-18T06:03:37;3.47;;;3.13;;
14306;SDS011;7237;49.500;11.400;2023-11-18T06:06:06;3.87;;;3.07;;
14306;SDS011;7237;49.500;11.400;2023-11-18T06:08:34;3.57;;;2.90;;
14306;SDS011;7237;49.500;11.400;2023-11-18T06:11:02;3.70;;;3.20;;
14306;SDS011;7237;49.500;11.400;2023-11-18T06:13:38;3.67;;;2.80;;
14306;SDS011;7237;49.500;11.400;2023-11-18T06:16:07;4.73;;;3.70;;
14306;SDS011;7237;49.500;11.400;2023-11-18T06:18:34;3.57;;;3.00;;
14306;SDS011;7237;49.500;11.400;2023-11-18T06:21:02;3.07;;;2.77;;
14306;SDS011;7237;49.500;11.400;2023-11-18T06:23:31;3.43;;;3.13;;
14306;SDS011;7237;49.500;11.400;2023-11-18T06:25:58;3.40;;;3.10;;
14306;SDS011;7237;49.500;11.400;2023-11-18T06:28:25;4.80;;;3.00;;
14306;SDS011;7237;49.500;11.400;2023-11-18T06:30:54;4.00;;;2.97;;
14306;SDS011;7237;49.500;11.400;2023-11-18T06:33:21;3.30;;;3.00;;
14306;SDS011;7237;49.500;11.400;2023-11-18T06:35:51;3.13;;;2.73;;
14306;SDS011;7237;49.500;11.400;2023-11-18T06:38:19;3.13;;;2.83;;
14306;SDS011;7237;49.500;11.400;2023-11-18T06:40:48;3.40;;;2.73;;
14306;SDS011;7237;49.500;11.400;2023-11-18T06:43:17;5.93;;;3.30;;
14306;SDS011;7237;49.500;11.400;2023-11-18T06:45:44;5.83;;;3.90;;
14306;SDS011;7237;49.500;11.400;2023-11-18T06:48:12;3.33;;;2.90;;
14306;SDS011;7237;49.500;11.400;2023-11-18T06:50:40;4.50;;;3.60;;
14306;SDS011;7237;49.500;11.400;2023-11-18T06:53:09;4.57;;;3.80;;
14306;SDS011;7237;49.500;11.400;2023-11-18T06:55:36;5.77;;;3.50;;
14306;SDS011;7237;49.500;11.400;2023-11-18T06:58:05;3.83;;;3.17;;
14306;SDS011;7237;49.500;11.400;2023-11-18T07:00:32;4.27;;;3.10;;
14306;SDS011;7237;49.500;11.400;2023-11-18T07:03:00;3.97;;;3.10;;
14306;SDS011;7237;49.500;11.400;2023-11-18T07:05:27;4.37;;;3.40;;
14306;SDS011;7237;49.500;11.400;2023-11-18T07:07:54;3.73;;;3.43;;
14306;SDS011;7237;49.500;11.400;2023-11-18T07:10:21;4.63;;;3.30;;
14306;SDS011;7237;49.500;11.400;2023-11-18T07:12:50;4.20;;;3.73;;
14306;SDS011;7237;49.500;11.400;2023-11-18T07:15:19;5.67;;;4.50;;
14306;SDS011;7237;49.500;11.400;2023-11-18T07:17:46;3.97;;;3.20;;
14306;SDS011;7237;49.500;11.400;2023-11-18T07:20:12;4.07;;;3.60;;
14306;SDS011;7237;49.500;11.400;2023-11-18T07:22:40;3.63;;;3.20;;
14306;SDS011;7237;49.500;11.400;2023-11-18T07:25:07;3.50;;;3.13;;
14306;SDS011;7237;49.500;11.400;2023-11-18T07:27:34;4.33;;;3.40;;
14306;SDS011;7237;49.500;11.400;2023-11-18T07:30:02;6.47;;;3.60;;
14306;SDS011;7237;49.500;11.400;2023-11-18T07:32:32;7.23;;;3.40;;
14306;SDS011;7237;49.500;11.400;2023-11-18T07:34:59;5.27;;;3.47;;
14306;SDS011;7237;49.500;11.400;2023-11-18T07:37:27;5.97;;;3.80;;
14306;SDS011;7237;49.500;11.400;2023-11-18T07:39:57;4.50;;;3.90;;
14306;SDS011;7237;49.500;11.400;2023-11-18T07:42:25;5.20;;;4.27;;
14306;SDS011;7237;49.500;11.400;2023-11-18T07:44:52;5.07;;;4.17;;
14306;SDS011;7237;49.500;11.400;2023-11-18T07:47:21;5.33;;;4.40;;
14306;SDS011;7237;49.500;11.400;2023-11-18T07:49:49;6.63;;;4.67;;
14306;SDS011;7237;49.500;11.400;2023-11-18T07:52:16;5.63;;;4.73;;
14306;SDS011;7237;49.500;11.400;2023-11-18T07:54:44;6.37;;;4.73;;
14306;SDS011;7237;49.500;11.400;2023-11-18T07:57:11;7.73;;;5.97;;
14306;SDS011;7237;49.500;11.400;2023-11-18T07:59:39;9.33;;;6.23;;
14306;SDS011;7237;49.500;11.400;2023-11-18T08:02:06;7.13;;;5.83;;
14306;SDS011;7237;49.500;11.400;2023-11-18T08:04:34;7.13;;;6.00;;
14306;SDS011;7237;49.500;11.400;2023-11-18T08:07:03;9.10;;;6.33;;
14306;SDS011;7237;49.500;11.400;2023-11-18T08:09:30;9.67;;;6.27;;
14306;SDS011;7237;49.500;11.400;2023-11-18T08:11:57;9.67;;;7.30;;
14306;SDS011;7237;49.500;11.400;2023-11-18T08:14:24;10.60;;;8.37;;
14306;SDS011;7237;49.500;11.400;2023-11-18T08:16:51;9.60;;;7.00;;
14306;SDS011;7237;49.500;11.400;2023-11-18T08:19:20;9.50;;;6.57;;
14306;SDS011;7237;49.500;11.400;2023-11-18T08:21:48;7.63;;;6.83;;
14306;SDS011;7237;49.500;11.400;2023-11-18T08:24:17;8.93;;;7.17;;
14306;SDS011;7237;49.500;11.400;2023-11-18T08:26:45;7.33;;;6.40;;
14306;SDS011;7237;49.500;11.400;2023-11-18T08:29:12;10.87;;;7.20;;
14306;SDS011;7237;49.500;11.400;2023-11-18T08:31:40;7.30;;;6.17;;
14306;SDS011;7237;49.500;11.400;2023-11-18T08:34:07;8.37;;;6.60;;
14306;SDS011;7237;49.500;11.400;2023-11-18T08:36:35;10.13;;;6.50;;
14306;SDS011;7237;49.500;11.400;2023-11-18T08:39:02;8.57;;;6.47;;
14306;SDS011;7237;49.500;11.400;2023-11-18T08:41:31;7.30;;;6.53;;
14306;SDS011;7237;49.500;11.400;2023-11-18T08:43:58;7.07;;;6.37;;
14306;SDS011;7237;49.500;11.400;2023-11-18T08:46:27;6.67;;;5.87;;
14306;SDS011;7237;49.500;11.400;2023-11-18T08:48:54;8.70;;;6.37;;
14306;SDS011;7237;49.500;11.400;2023-11-18T08:51:21;6.40;;;5.80;;
14306;SDS011;7237;49.500;11.400;2023-11-18T08:53:51;6.60;;;5.57;;
14306;SDS011;7237;49.500;11.400;2023-11-18T08:56:20;9.07;;;6.33;;
14306;SDS011;7237;49.500;11.400;2023-11-18T08:58:58;7.83;;;5.73;;
14306;SDS011;7237;49.500;11.400;2023-11-18T09:01:25;6.70;;;5.83;;
14306;SDS011;7237;49.500;11.400;2023-11-18T09:03:53;7.70;;;5.93;;
14306;SDS011;7237;49.500;11.400;2023-11-18T09:06:22;8.60;;;6.10;;
14306;SDS011;7237;49.500;11.400;2023-11-18T09:08:53;9.97;;;6.10;;
14306;SDS011;7237;49.500;11.400;2023-11-18T09:11:22;6.80;;;6.03;;
14306;SDS011;7237;49.500;11.400;2023-11-18T09:13:54;8.03;;;5.80;;
14306;SDS011;7237;49.500;11.400;2023-11-18T09:16:26;6.73;;;5.30;;
14306;SDS011;7237;49.500;11.400;2023-11-18T09:18:54;6.87;;;5.80;;
14306;SDS011;7237;49.500;11.400;2023-11-18T09:21:24;7.10;;;5.80;;
14306;SDS011;7237;49.500;11.400;2023-11-18T09:23:54;6.60;;;5.63;;
14306;SDS011;7237;49.500;11.400;2023-11-18T09:26:21;7.30;;;6.47;;
14306;SDS011;7237;49.500;11.400;2023-11-18T09:28:50;7.07;;;6.37;;
14306;SDS011;7237;49.500;11.400;2023-11-18T09:31:17;8.33;;;6.43;;
14306;SDS011;7237;49.500;11.400;2023-11-18T09:33:47;7.43;;;6.00;;
14306;SDS011;7237;49.500;11.400;2023-11-18T09:36:18;7.23;;;5.80;;
14306;SDS011;7237;49.500;11.400;2023-11-18T09:38:46;6.60;;;5.60;;
14306;SDS011;7237;49.500;11.400;2023-11-18T09:41:14;10.17;;;6.00;;
14306;SDS011;7237;49.500;11.400;2023-11-18T09:43:42;6.40;;;5.67;;
14306;SDS011;7237;49.500;11.400;2023-11-18T09:46:11;7.63;;;6.03;;
14306;SDS011;7237;49.500;11.400;2023-11-18T09:48:40;9.23;;;6.63;;
14306;SDS011;7237;49.500;11.400;2023-11-18T09:51:12;7.70;;;6.93;;
14306;SDS011;7237;49.500;11.400;2023-11-18T09:53:41;8.60;;;6.20;;
14306;SDS011;7237;49.500;11.400;2023-11-18T09:56:12;9.43;;;6.77;;
14306;SDS011;7237;49.500;11.400;2023-11-18T09:58:48;8.30;;;6.47;;
14306;SDS011;7237;49.500;11.400;2023-11-18T10:01:18;10.17;;;6.57;;
14306;SDS011;7237;49.500;11.400;2023-11-18T10:03:46;7.53;;;6.63;;
14306;SDS011;7237;49.500;11.400;2023-11-18T10:06:15;6.93;;;6.23;;
14306;SDS011;7237;49.500;11.400;2023-11-18T10:08:42;12.90;;;6.47;;
14306;SDS011;7237;49.500;11.400;2023-11-18T10:11:11;9.87;;;7.20;;
14306;SDS011;7237;49.500;11.400;2023-11-18T10:13:38;11.83;;;6.30;;
14306;SDS011;7237;49.500;11.400;2023-11-18T10:16:09;10.63;;;6.80;;
14306;SDS011;7237;49.500;11.400;2023-11-18T10:18:37;6.83;;;6.00;;
14306;SDS011;7237;49.500;11.400;2023-11-18T10:21:15;8.30;;;6.43;;
14306;SDS011;7237;49.500;11.400;2023-11-18T10:23:58;7.13;;;6.43;;
14306;SDS011;7237;49.500;11.400;2023-11-18T10:26:26;7.10;;;6.40;;
14306;SDS011;7237;49.500;11.400;2023-11-18T10:28:53;6.97;;;6.10;;
14306;SDS011;7237;49.500;11.400;2023-11-18T10:31:20;7.43;;;6.73;;
14306;SDS011;7237;49.500;11.400;2023-11-18T10:33:49;7.13;;;6.40;;
14306;SDS011;7237;49.500;11.400;2023-11-18T10:36:18;8.10;;;6.80;;
14306;SDS011;7237;49.500;11.400;2023-11-18T10:38:47;7.00;;;6.40;;
14306;SDS011;7237;49.500;11.400;2023-11-18T10:41:17;8.20;;;7.07;;
14306;SDS011;7237;49.500;11.400;2023-11-18T10:43:44;7.93;;;7.13;;
14306;SDS011;7237;49.500;11.400;2023-11-18T10:46:13;7.63;;;6.77;;
14306;SDS011;7237;49.500;11.400;2023-11-18T10:48:40;7.30;;;6.07;;
14306;SDS011;7237;49.500;11.400;2023-11-18T10:51:08;7.87;;;6.63;;
14306;SDS011;7237;49.500;11.400;2023-11-18T10:53:39;7.67;;;6.63;;
14306;SDS011;7237;49.500;11.400;2023-11-18T10:56:18;7.87;;;6.33;;
14306;SDS011;7237;49.500;11.400;2023-11-18T10:58:49;8.53;;;6.80;;
14306;SDS011;7237;49.500;11.400;2023-11-18T11:01:19;6.43;;;5.77;;
14306;SDS011;7237;49.500;11.400;2023-11-18T11:03:53;6.43;;;5.20;;
14306;SDS011;7237;49.500;11.400;2023-11-18T11:06:21;7.03;;;6.23;;
14306;SDS011;7237;49.500;11.400;2023-11-18T11:08:50;6.57;;;5.90;;
14306;SDS011;7237;49.500;11.400;2023-11-18T11:11:18;5.97;;;5.37;;
14306;SDS011;7237;49.500;11.400;2023-11-18T11:13:47;5.97;;;5.33;;
14306;SDS011;7237;49.500;11.400;2023-11-18T11:16:16;5.67;;;5.17;;
14306;SDS011;7237;49.500;11.400;2023-11-18T11:18:47;7.33;;;5.10;;
14306;SDS011;7237;49.500;11.400;2023-11-18T11:21:19;7.43;;;5.77;;
14306;SDS011;7237;49.500;11.400;2023-11-18T11:23:52;5.90;;;5.30;;
14306;SDS011;7237;49.500;11.400;2023-11-18T11:26:25;9.47;;;6.07;;
14306;SDS011;7237;49.500;11.400;2023-11-18T11:28:57;6.47;;;5.87;;
14306;SDS011;7237;49.500;11.400;2023-11-18T11:31:26;7.50;;;6.50;;
14306;SDS011;7237;49.500;11.400;2023-11-18T11:33:58;7.53;;;6.73;;
14306;SDS011;7237;49.500;11.400;2023-11-18T11:36:29;7.93;;;7.13;;
14306;SDS011;7237;49.500;11.400;2023-11-18T11:38:59;8.60;;;7.70;;
14306;SDS011;7237;49.500;11.400;2023-11-18T11:41:28;9.33;;;7.87;;
14306;SDS011;7237;49.500;11.400;2023-11-18T11:43:59;10.40;;;7.97;;
14306;SDS011;7237;49.500;11.400;2023-11-18T11:46:31;9.30;;;8.40;;
14306;SDS011;7237;49.500;11.400;2023-11-18T11:49:00;8.77;;;7.97;;
14306;SDS011;7237;49.500;11.400;2023-11-18T11:51:39;8.83;;;7.23;;
14306;SDS011;7237;49.500;11.400;2023-11-18T11:54:09;9.05;;;8.00;;
14306;SDS011;7237;49.500;11.400;2023-11-18T11:56:41;8.83;;;7.93;;
14306;SDS011;7237;49.500;11.400;2023-11-18T11:59:09;8.53;;;7.60;;
14306;SDS011;7237;49.500;11.400;2023-11-18T12:01:37;8.37;;;7.50;;
14306;SDS011;7237;49.500;11.400;2023-11-18T12:04:07;9.03;;;8.03;;
14306;SDS011;7237;49.500;11.400;2023-11-18T12:06:37;8.97;;;8.00;;
14306;SDS011;7237;49.500;11.400;2023-11-18T12:09:09;9.30;;;8.40;;
14306;SDS011;7237;49.500;11.400;2023-11-18T12:11:44;10.37;;;8.50;;
14306;SDS011;7237;49.500;11.400;2023-11-18T12:14:13;8.37;;;7.57;;
14306;SDS011;7237;49.500;11.400;2023-11-18T12:17:00;8.50;;;7.60;;
14306;SDS011;7237;49.500;11.400;2023-11-18T12:19:32;8.73;;;7.83;;
14306;SDS011;7237;49.500;11.400;2023-11-18T12:22:09;9.73;;;7.80;;
14306;SDS011;7237;49.500;11.400;2023-11-18T12:24:44;10.77;;;8.87;;
14306;SDS011;7237;49.500;11.400;2023-11-18T12:27:12;9.97;;;8.97;;
14306;SDS011;7237;49.500;11.400;2023-11-18T12:29:42;8.27;;;7.37;;
14306;SDS011;7237;49.500;11.400;2023-11-18T12:32:09;9.37;;;8.00;;
14306;SDS011;7237;49.500;11.400;2023-11-18T12:34:49;8.03;;;7.23;;
14306;SDS011;7237;49.500;11.400;2023-11-18T12:37:26;8.70;;;7.90;;
14306;SDS011;7237;49.500;11.400;2023-11-18T12:40:19;7.93;;;7.23;;
14306;SDS011;7237;49.500;11.400;2023-11-18T12:42:58;8.40;;;7.60;;
14306;SDS011;7237;49.500;11.400;2023-11-18T12:45:42;9.73;;;8.20;;
14306;SDS011;7237;49.500;11.400;2023-11-18T12:48:12;11.67;;;7.47;;
14306;SDS011;7237;49.500;11.400;2023-11-18T12:50:41;8.77;;;7.77;;
14306;SDS011;7237;49.500;11.400;2023-11-18T12:53:10;8.47;;;7.50;;
14306;SDS011;7237;49.500;11.400;2023-11-18T12:55:41;10.27;;;8.53;;
14306;SDS011;7237;49.500;11.400;2023-11-18T12:58:08;8.20;;;7.40;;
14306;SDS011;7237;49.500;11.400;2023-11-18T13:00:37;8.60;;;7.80;;
14306;SDS011;7237;49.500;11.400;2023-11-18T13:03:07;8.73;;;7.93;;
14306;SDS011;7237;49.500;11.400;2023-11-18T13:05:35;8.13;;;7.33;;
14306;SDS011;7237;49.500;11.400;2023-11-18T13:08:03;7.93;;;7.23;;
14306;SDS011;7237;49.500;11.400;2023-11-18T13:10:30;8.33;;;7.43;;
14306;SDS011;7237;49.500;11.400;2023-11-18T13:12:59;8.03;;;7.33;;
14306;SDS011;7237;49.500;11.400;2023-11-18T13:15:26;9.47;;;7.53;;
14306;SDS011;7237;49.500;11.400;2023-11-18T13:17:58;8.03;;;7.23;;
14306;SDS011;7237;49.500;11.400;2023-11-18T13:20:25;8.50;;;7.70;;
14306;SDS011;7237;49.500;11.400;2023-11-18T13:22:52;7.50;;;6.80;;
14306;SDS011;7237;49.500;11.400;2023-11-18T13:25:21;8.47;;;7.67;;
14306;SDS011;7237;49.500;11.400;2023-11-18T13:27:47;7.93;;;7.23;;
14306;SDS011;7237;49.500;11.400;2023-11-18T13:30:15;9.30;;;7.67;;
14306;SDS011;7237;49.500;11.400;2023-11-18T13:32:43;7.63;;;6.93;;
14306;SDS011;7237;49.500;11.400;2023-11-18T13:35:10;8.57;;;7.07;;
14306;SDS011;7237;49.500;11.400;2023-11-18T13:37:39;7.70;;;6.90;;
14306;SDS011;7237;49.500;11.400;2023-11-18T13:40:07;7.27;;;6.60;;
14306;SDS011;7237;49.500;11.400;2023-11-18T13:42:34;6.83;;;6.20;;
14306;SDS011;7237;49.500;11.400;2023-11-18T13:45:04;8.50;;;7.40;;
14306;SDS011;7237;49.500;11.400;2023-11-18T13:47:35;7.23;;;6.53;;
14306;SDS011;7237;49.500;11.400;2023-11-18T13:50:06;7.00;;;6.30;;
14306;SDS011;7237;49.500;11.400;2023-11-18T13:52:33;7.10;;;6.50;;
14306;SDS011;7237;49.500;11.400;2023-11-18T13:55:00;8.30;;;7.50;;
14306;SDS011;7237;49.500;11.400;2023-11-18T13:57:31;10.40;;;8.13;;
14306;SDS011;7237;49.500;11.400;2023-11-18T13:59:59;8.53;;;7.73;;
14306;SDS011;7237;49.500;11.400;2023-11-18T14:02:26;8.57;;;7.77;;
14306;SDS011;7237;49.500;11.400;2023-11-18T14:04:55;9.93;;;7.90;;
14306;SDS011;7237;49.500;11.400;2023-11-18T14:07:23;9.67;;;8.10;;
14306;SDS011;7237;49.500;11.400;2023-11-18T14:09:50;9.37;;;8.07;;
14306;SDS011;7237;49.500;11.400;2023-11-18T14:12:21;8.77;;;7.87;;
14306;SDS011;7237;49.500;11.400;2023-11-18T14:14:52;8.43;;;7.63;;
14306;SDS011;7237;49.500;11.400;2023-11-18T14:17:19;8.67;;;7.83;;
14306;SDS011;7237;49.500;11.400;2023-11-18T14:19:46;8.53;;;7.73;;
14306;SDS011;7237;49.500;11.400;2023-11-18T14:22:16;7.50;;;6.80;;
14306;SDS011;7237;49.500;11.400;2023-11-18T14:24:43;7.83;;;7.10;;
14306;SDS011;7237;49.500;11.400;2023-11-18T14:27:10;8.83;;;8.00;;
14306;SDS011;7237;49.500;11.400;2023-11-18T14:29:38;8.53;;;7.73;;
14306;SDS011;7237;49.500;11.400;2023-11-18T14:32:05;9.10;;;8.20;;
14306;SDS011;7237;49.500;11.400;2023-11-18T14:34:32;7.40;;;6.70;;
14306;SDS011;7237;49.500;11.400;2023-11-18T14:36:59;7.67;;;6.87;;
14306;SDS011;7237;49.500;11.400;2023-11-18T14:39:28;7.80;;;7.10;;
14306;SDS011;7237;49.500;11.400;2023-11-18T14:41:55;7.90;;;7.10;;
14306;SDS011;7237;49.500;11.400;2023-11-18T14:44:22;7.77;;;6.97;;
14306;SDS011;7237;49.500;11.400;2023-11-18T14:46:50;7.90;;;7.10;;
14306;SDS011;7237;49.500;11.400;2023-11-18T14:49:17;7.37;;;6.47;;
14306;SDS011;7237;49.500;11.400;2023-11-18T14:51:44;6.97;;;6.37;;
14306;SDS011;7237;49.500;11.400;2023-11-18T14:54:12;8.43;;;6.70;;